Time;durP1;ratioP1;P1;durP2;ratioP2;P2;SDS_P1;SDS_P2;PMS_P1;PMS_P2;Temp;Humidity;BMP_temperature;BMP_pressure;BME280_temperature;BME280_humidity;BME280_pressure;Samples;Min_cycle;Max_cycle;Signal;HPM_P1;HPM_P2
2023/06/09 00:01:42;;;;;;;7.88;3.17;;;13.30;99.90;;;;;;4996539;28;20038;-70
2023/06/09 00:04:09;;;;;;;10.75;3.97;;;13.30;99.90;;;;;;5008234;28;20058;-70
2023/06/09 00:06:35;;;;;;;11.20;3.08;;;13.30;99.90;;;;;;5017021;28;20402;-70
2023/06/09 00:09:06;;;;;;;13.38;3.47;;;13.30;99.90;;;;;;5011096;28;20037;-70
2023/06/09 00:11:34;;;;;;;11.93;3.70;;;13.30;99.90;;;;;;5013193;28;20045;-69
2023/06/09 00:14:00;;;;;;;13.00;3.80;;;13.30;99.90;;;;;;4983037;28;20101;-70
2023/06/09 00:16:28;;;;;;;15.77;4.15;;;13.30;99.90;;;;;;4998222;28;20203;-70
2023/06/09 00:18:55;;;;;;;11.30;4.15;;;13.30;99.90;;;;;;5008717;28;20080;-69
2023/06/09 00:21:21;;;;;;;14.15;3.63;;;13.30;99.90;;;;;;5009037;28;20044;-70
2023/06/09 00:23:47;;;;;;;11.65;4.03;;;13.30;99.90;;;;;;5004336;28;20033;-69
2023/06/09 00:26:13;;;;;;;14.25;4.88;;;13.20;99.90;;;;;;5010847;23;20490;-70
2023/06/09 00:28:39;;;;;;;9.38;3.60;;;13.20;99.90;;;;;;5011841;28;20123;-70
2023/06/09 00:31:05;;;;;;;;;;;13.20;99.90;;;;;;4987805;28;20130;-70
2023/06/09 00:33:31;;;;;;;10.38;4.35;;;13.30;99.90;;;;;;5003455;28;20355;-69
2023/06/09 00:35:57;;;;;;;13.20;4.00;;;13.30;99.90;;;;;;4994994;28;20225;-69
2023/06/09 00:38:23;;;;;;;16.42;4.25;;;13.30;99.90;;;;;;5016801;28;20442;-69
2023/06/09 00:40:52;;;;;;;16.98;4.15;;;13.30;99.90;;;;;;5018099;28;20556;-70
2023/06/09 00:43:17;;;;;;;8.88;3.60;;;13.30;99.90;;;;;;5004886;28;20144;-70
2023/06/09 00:45:43;;;;;;;10.50;3.63;;;13.30;99.90;;;;;;5013979;28;20429;-70
2023/06/09 00:48:09;;;;;;;12.77;4.25;;;13.30;99.90;;;;;;5014293;28;20124;-70
2023/06/09 00:50:36;;;;;;;10.32;3.25;;;13.30;99.90;;;;;;5013161;28;20549;-70
2023/06/09 00:53:02;;;;;;;13.98;3.75;;;13.20;99.90;;;;;;5012796;28;20077;-70
2023/06/09 00:55:30;;;;;;;12.45;3.88;;;13.20;99.90;;;;;;5015776;28;20044;-70
2023/06/09 00:58:00;;;;;;;13.70;4.05;;;13.30;99.90;;;;;;4983349;28;20041;-69
2023/06/09 01:00:29;;;;;;;12.05;3.72;;;13.20;99.90;;;;;;4982487;28;20590;-70
2023/06/09 01:03:02;;;;;;;12.05;4.13;;;13.30;99.90;;;;;;5000526;28;20125;-70
2023/06/09 01:05:36;;;;;;;8.48;3.95;;;13.30;99.90;;;;;;5014364;28;20061;-69
2023/06/09 01:08:23;;;;;;;9.82;3.38;;;13.30;99.90;;;;;;5023142;28;20040;-69
2023/06/09 01:11:15;;;;;;;10.40;3.45;;;13.30;99.90;;;;;;5003843;28;20048;-70
2023/06/09 01:14:13;;;;;;;11.82;3.25;;;13.30;99.90;;;;;;5009794;28;20049;-70
2023/06/09 01:16:57;;;;;;;10.23;3.85;;;13.30;99.90;;;;;;5007340;28;20124;-70
2023/06/09 01:19:47;;;;;;;13.10;3.83;;;13.40;99.90;;;;;;5009118;28;20045;-70
2023/06/09 01:22:37;;;;;;;10.43;4.00;;;13.30;99.90;;;;;;5021521;28;20443;-70
2023/06/09 01:25:45;;;;;;;14.75;3.75;;;13.40;99.90;;;;;;5005224;28;20037;-70
2023/06/09 01:28:16;;;;;;;9.38;3.55;;;13.30;99.90;;;;;;4987015;28;20876;-69
2023/06/09 01:30:43;;;;;;;11.52;3.88;;;13.40;99.90;;;;;;5000680;28;20258;-69
2023/06/09 01:33:13;;;;;;;7.60;2.85;;;13.40;99.90;;;;;;5021705;28;20111;-70
2023/06/09 01:35:40;;;;;;;9.68;4.20;;;13.30;99.90;;;;;;5021983;28;20635;-70
2023/06/09 01:38:07;;;;;;;11.95;3.67;;;13.30;99.90;;;;;;5000100;28;20121;-70
2023/06/09 01:40:33;;;;;;;14.45;3.90;;;13.30;99.90;;;;;;4995764;28;20057;-70
2023/06/09 01:43:01;;;;;;;12.85;3.70;;;13.30;99.90;;;;;;5010923;28;20128;-69
2023/06/09 01:45:27;;;;;;;9.10;3.35;;;13.30;99.90;;;;;;4992298;28;20746;-70
2023/06/09 01:47:54;;;;;;;13.27;3.75;;;13.30;99.90;;;;;;5004210;28;20127;-70
2023/06/09 01:50:24;;;;;;;11.45;3.40;;;13.30;99.90;;;;;;5021647;28;20297;-70
2023/06/09 01:52:56;;;;;;;14.90;4.00;;;13.30;99.90;;;;;;5008988;28;20287;-70
2023/06/09 01:55:28;;;;;;;10.88;3.63;;;13.20;99.90;;;;;;5013397;28;20092;-69
2023/06/09 01:57:59;;;;;;;10.38;3.42;;;13.20;99.90;;;;;;5016673;28;21312;-69
2023/06/09 02:00:26;;;;;;;10.43;3.33;;;13.20;99.90;;;;;;4997289;28;20275;-70
2023/06/09 02:02:59;;;;;;;11.57;3.28;;;13.20;99.90;;;;;;5005240;28;20578;-69
2023/06/09 02:05:26;;;;;;;16.75;3.55;;;13.20;99.90;;;;;;4993765;28;20038;-70
2023/06/09 02:07:53;;;;;;;9.55;3.20;;;13.20;99.90;;;;;;4997315;28;20142;-69
2023/06/09 02:10:22;;;;;;;10.18;3.85;;;13.20;99.90;;;;;;4974434;28;20156;-70
2023/06/09 02:12:48;;;;;;;9.85;3.58;;;13.20;99.90;;;;;;5014252;28;20053;-70
2023/06/09 02:15:14;;;;;;;14.43;4.78;;;13.20;99.90;;;;;;4994930;28;20148;-70
2023/06/09 02:17:40;;;;;;;13.70;3.40;;;13.20;99.90;;;;;;5006700;28;20049;-70
2023/06/09 02:20:10;;;;;;;7.18;3.60;;;13.20;99.90;;;;;;4998615;28;20049;-70
2023/06/09 02:22:36;;;;;;;13.40;4.07;;;13.20;99.90;;;;;;5000630;28;20092;-71
2023/06/09 02:25:05;;;;;;;8.45;3.88;;;13.20;99.90;;;;;;5016587;28;21023;-72
2023/06/09 02:27:32;;;;;;;11.45;3.72;;;13.20;99.90;;;;;;5026986;28;20045;-70
2023/06/09 02:29:57;;;;;;;14.73;4.47;;;13.20;99.90;;;;;;5018482;28;20091;-70
2023/06/09 02:32:23;;;;;;;11.77;4.18;;;13.10;99.90;;;;;;5012884;28;20394;-70
2023/06/09 02:34:52;;;;;;;13.32;4.63;;;13.10;99.90;;;;;;5011457;28;20067;-70
2023/06/09 02:37:18;;;;;;;8.82;3.80;;;13.10;99.90;;;;;;4996792;28;20056;-71
2023/06/09 02:39:43;;;;;;;14.73;4.75;;;13.10;99.90;;;;;;4996701;28;20049;-70
2023/06/09 02:42:09;;;;;;;9.98;3.58;;;13.00;99.90;;;;;;5008152;28;20095;-70
2023/06/09 02:44:38;;;;;;;12.07;3.80;;;13.00;99.90;;;;;;5001026;28;20053;-69
2023/06/09 02:47:05;;;;;;;14.68;3.72;;;13.00;99.90;;;;;;4995824;28;20110;-70
2023/06/09 02:49:31;;;;;;;11.63;3.75;;;13.00;99.90;;;;;;5016167;28;20033;-69
2023/06/09 02:51:56;;;;;;;10.80;4.00;;;13.00;99.90;;;;;;4998830;28;20064;-70
2023/06/09 02:54:22;;;;;;;10.70;3.47;;;13.00;99.90;;;;;;5016300;28;20046;-70
2023/06/09 02:56:48;;;;;;;15.20;4.10;;;13.00;99.90;;;;;;5018985;28;20077;-70
2023/06/09 02:59:13;;;;;;;8.68;3.83;;;13.00;99.90;;;;;;5018384;28;20054;-70
2023/06/09 03:01:42;;;;;;;15.57;4.30;;;13.00;99.90;;;;;;4994472;28;20084;-69
2023/06/09 03:04:08;;;;;;;10.50;3.85;;;13.00;99.90;;;;;;4997438;28;20055;-70
2023/06/09 03:06:36;;;;;;;7.95;4.45;;;13.00;99.90;;;;;;5016669;28;20291;-70
2023/06/09 03:09:03;;;;;;;11.27;4.28;;;13.00;99.90;;;;;;5001472;28;20057;-70
2023/06/09 03:11:32;;;;;;;12.93;4.43;;;13.00;99.90;;;;;;4998062;28;20049;-69
2023/06/09 03:13:57;;;;;;;15.50;4.85;;;13.00;99.90;;;;;;5006455;28;20120;-71
2023/06/09 03:16:23;;;;;;;11.18;4.50;;;13.00;99.90;;;;;;5001598;28;20137;-71
2023/06/09 03:18:49;;;;;;;18.45;5.13;;;13.00;99.90;;;;;;5007523;28;20575;-70
2023/06/09 03:21:15;;;;;;;9.65;4.43;;;13.00;99.90;;;;;;5001885;28;20076;-70
2023/06/09 03:23:41;;;;;;;15.52;5.10;;;13.00;99.90;;;;;;5001524;28;20049;-70
2023/06/09 03:26:08;;;;;;;14.35;4.65;;;13.00;99.90;;;;;;5017980;28;20156;-70
2023/06/09 03:28:33;;;;;;;21.13;4.93;;;13.00;99.90;;;;;;4995406;28;20456;-70
2023/06/09 03:30:59;;;;;;;14.27;4.65;;;13.00;99.90;;;;;;5009304;28;20037;-70
2023/06/09 03:33:25;;;;;;;16.20;5.50;;;13.00;99.90;;;;;;5021609;28;20095;-70
2023/06/09 03:35:51;;;;;;;12.88;5.30;;;13.00;99.90;;;;;;4995318;28;20492;-70
2023/06/09 03:38:18;;;;;;;11.88;4.65;;;13.00;99.90;;;;;;5021819;28;20136;-70
2023/06/09 03:40:43;;;;;;;13.52;5.40;;;13.10;99.90;;;;;;5008021;28;20099;-71
2023/06/09 03:43:11;;;;;;;14.88;4.53;;;13.10;99.90;;;;;;4988927;28;20037;-70
2023/06/09 03:45:37;;;;;;;14.05;4.85;;;13.10;99.90;;;;;;4996474;28;20554;-71
2023/06/09 03:48:05;;;;;;;10.00;4.95;;;13.10;99.90;;;;;;5016670;28;20048;-71
2023/06/09 03:50:31;;;;;;;13.02;5.07;;;13.10;99.90;;;;;;5015223;28;20038;-70
2023/06/09 03:52:57;;;;;;;12.02;5.30;;;13.10;99.90;;;;;;5013645;28;20467;-71
2023/06/09 03:55:24;;;;;;;19.23;6.65;;;13.10;99.90;;;;;;5011828;28;20129;-71
2023/06/09 03:57:50;;;;;;;15.18;5.72;;;13.10;99.90;;;;;;5021022;28;20414;-70
2023/06/09 04:00:17;;;;;;;13.80;5.32;;;13.10;99.90;;;;;;5014042;28;20048;-70
2023/06/09 04:02:44;;;;;;;17.30;5.97;;;13.10;99.90;;;;;;5012929;28;20566;-70
2023/06/09 04:05:10;;;;;;;14.95;5.32;;;13.10;99.90;;;;;;5018801;28;20050;-70
2023/06/09 04:07:35;;;;;;;12.10;5.65;;;13.20;99.90;;;;;;5007004;28;20450;-70
2023/06/09 04:10:02;;;;;;;10.50;5.50;;;13.20;99.90;;;;;;5014430;28;20050;-69
2023/06/09 04:12:28;;;;;;;14.30;6.30;;;13.20;99.90;;;;;;4999951;28;20524;-70
2023/06/09 04:14:55;;;;;;;14.82;5.88;;;13.20;99.90;;;;;;5024425;28;20046;-70
2023/06/09 04:17:22;;;;;;;12.52;6.07;;;13.20;99.90;;;;;;5018809;28;20412;-70
2023/06/09 04:19:48;;;;;;;13.13;5.55;;;13.20;99.90;;;;;;4995702;28;20492;-71
2023/06/09 04:22:14;;;;;;;18.88;5.95;;;13.30;99.90;;;;;;5013459;28;20487;-70
2023/06/09 04:24:40;;;;;;;14.32;4.95;;;13.30;99.90;;;;;;5020169;28;20107;-69
2023/06/09 04:27:07;;;;;;;17.23;5.75;;;13.30;99.90;;;;;;5016844;28;20314;-71
2023/06/09 04:29:33;;;;;;;12.65;5.40;;;13.30;99.90;;;;;;4997245;28;20053;-70
2023/06/09 04:32:00;;;;;;;12.90;5.22;;;13.40;99.90;;;;;;5014372;28;20034;-70
2023/06/09 04:34:29;;;;;;;;;;;13.40;99.90;;;;;;5016727;28;20112;-71
2023/06/09 04:36:59;;;;;;;13.85;4.97;;;13.40;99.90;;;;;;5014465;28;20345;-70
2023/06/09 04:39:25;;;;;;;17.65;5.07;;;13.50;99.90;;;;;;5001867;28;20044;-71
2023/06/09 04:41:54;;;;;;;18.67;5.13;;;13.50;99.90;;;;;;5015890;28;20124;-71
2023/06/09 04:44:21;;;;;;;14.25;5.45;;;13.50;99.90;;;;;;5025555;28;20092;-70
2023/06/09 04:46:49;;;;;;;18.65;6.70;;;13.50;99.90;;;;;;4991683;28;20104;-70
2023/06/09 04:49:15;;;;;;;13.32;5.55;;;13.60;99.90;;;;;;5002007;28;20041;-69
2023/06/09 04:51:46;;;;;;;15.23;5.00;;;13.60;99.90;;;;;;5022795;28;20045;-69
2023/06/09 04:54:17;;;;;;;16.73;5.93;;;13.60;99.90;;;;;;5023522;28;20094;-69
2023/06/09 04:56:49;;;;;;;12.98;5.55;;;13.70;99.90;;;;;;5017637;28;20072;-70
2023/06/09 04:59:15;;;;;;;15.98;6.28;;;13.70;99.90;;;;;;5022114;28;20045;-70
2023/06/09 05:01:41;;;;;;;14.75;5.53;;;13.70;99.90;;;;;;4995074;28;20041;-70
2023/06/09 05:04:07;;;;;;;14.88;5.47;;;13.80;99.90;;;;;;4993254;28;20515;-70
2023/06/09 05:06:33;;;;;;;;;;;13.80;99.90;;;;;;4994588;28;20443;-69
2023/06/09 05:08:59;;;;;;;12.18;5.45;;;13.80;99.90;;;;;;5008679;28;19975;-71
2023/06/09 05:11:25;;;;;;;13.20;4.93;;;13.90;99.90;;;;;;5021190;28;20136;-71
2023/06/09 05:13:54;;;;;;;15.50;4.47;;;13.90;99.90;;;;;;5009581;28;20140;-70
2023/06/09 05:16:21;;;;;;;11.93;4.53;;;13.90;99.90;;;;;;4994162;28;20073;-69
2023/06/09 05:18:47;;;;;;;9.60;4.53;;;14.00;99.90;;;;;;5006025;28;20053;-69
2023/06/09 05:21:13;;;;;;;10.75;4.50;;;14.00;99.90;;;;;;5012707;28;20046;-70
2023/06/09 05:23:38;;;;;;;10.80;4.20;;;14.10;99.90;;;;;;5025842;28;20049;-70
2023/06/09 05:26:04;;;;;;;9.57;4.50;;;14.10;99.90;;;;;;4998632;28;20047;-69
2023/06/09 05:28:30;;;;;;;13.85;4.13;;;14.20;99.90;;;;;;5017294;28;20053;-70
2023/06/09 05:30:56;;;;;;;11.57;4.18;;;14.20;99.90;;;;;;5017489;28;20050;-71
2023/06/09 05:33:22;;;;;;;10.13;4.22;;;14.20;99.90;;;;;;5015893;28;20491;-70
2023/06/09 05:35:48;;;;;;;12.55;4.45;;;14.30;99.90;;;;;;5008763;28;20041;-70
2023/06/09 05:38:14;;;;;;;11.60;4.75;;;14.30;99.90;;;;;;5000720;28;20052;-70
2023/06/09 05:40:39;;;;;;;11.27;4.47;;;14.40;99.90;;;;;;5017581;28;20414;-70
2023/06/09 05:43:05;;;;;;;11.38;3.75;;;14.40;99.90;;;;;;5012747;28;20038;-70
2023/06/09 05:45:31;;;;;;;11.23;4.30;;;14.50;99.90;;;;;;5017016;28;20170;-70
2023/06/09 05:47:57;;;;;;;8.45;4.28;;;14.50;99.90;;;;;;5013439;28;20054;-70
2023/06/09 05:50:23;;;;;;;11.00;3.97;;;14.60;99.90;;;;;;5013625;28;20038;-70
2023/06/09 05:52:48;;;;;;;8.95;4.20;;;14.60;99.90;;;;;;5004327;28;20045;-70
2023/06/09 05:55:16;;;;;;;10.05;4.35;;;14.70;99.90;;;;;;5007610;28;20047;-70
2023/06/09 05:57:44;;;;;;;10.50;4.28;;;14.70;99.90;;;;;;5014237;28;20049;-69
2023/06/09 06:00:10;;;;;;;12.43;3.90;;;14.80;99.90;;;;;;5019222;28;20095;-70
2023/06/09 06:02:38;;;;;;;14.60;3.78;;;14.80;99.90;;;;;;5005730;28;20038;-69
2023/06/09 06:05:05;;;;;;;14.82;4.22;;;14.90;99.90;;;;;;5016933;28;20049;-69
2023/06/09 06:07:31;;;;;;;12.77;4.40;;;14.90;99.90;;;;;;5023409;28;20372;-69
2023/06/09 06:09:57;;;;;;;12.85;4.80;;;15.00;99.90;;;;;;5024191;28;20045;-70
2023/06/09 06:12:22;;;;;;;10.40;4.03;;;15.10;99.90;;;;;;5014595;28;20061;-69
2023/06/09 06:14:48;;;;;;;15.50;4.53;;;15.10;99.90;;;;;;5005737;28;20053;-70
2023/06/09 06:17:14;;;;;;;13.55;4.05;;;15.20;99.90;;;;;;5022028;28;20049;-69
2023/06/09 06:19:40;;;;;;;11.50;3.55;;;15.20;99.90;;;;;;5024404;28;20126;-69
2023/06/09 06:22:06;;;;;;;10.32;4.60;;;15.30;99.90;;;;;;5017343;28;20073;-70
2023/06/09 06:24:32;;;;;;;9.70;4.13;;;15.40;99.90;;;;;;5021352;22;20085;-74
2023/06/09 06:26:57;;;;;;;13.02;4.05;;;15.40;99.90;;;;;;5023251;28;20045;-71
2023/06/09 06:29:23;;;;;;;11.93;3.88;;;15.50;99.90;;;;;;5002494;28;20037;-71
2023/06/09 06:31:49;;;;;;;12.93;4.28;;;15.50;99.90;;;;;;5016011;28;20457;-70
2023/06/09 06:34:15;;;;;;;10.05;3.35;;;15.60;99.90;;;;;;5008369;28;20529;-71
2023/06/09 06:36:40;;;;;;;11.73;3.70;;;15.70;99.90;;;;;;4992953;28;20506;-70
2023/06/09 06:39:06;;;;;;;9.00;3.95;;;15.70;99.90;;;;;;4997663;28;20426;-71
2023/06/09 06:41:32;;;;;;;9.52;4.00;;;15.80;99.90;;;;;;4990045;28;20268;-71
2023/06/09 06:44:01;;;;;;;12.65;4.13;;;15.90;99.90;;;;;;4987402;28;20626;-71
2023/06/09 06:46:26;;;;;;;11.57;4.00;;;15.90;99.90;;;;;;4997964;28;20490;-71
2023/06/09 06:48:52;;;;;;;14.70;5.18;;;16.00;99.90;;;;;;5002157;28;20046;-70
2023/06/09 06:51:19;;;;;;;13.45;4.10;;;16.00;99.90;;;;;;4993296;28;20221;-72
2023/06/09 06:53:45;;;;;;;15.02;4.93;;;16.10;99.90;;;;;;4985561;28;20140;-71
2023/06/09 06:56:10;;;;;;;13.40;4.03;;;16.10;99.90;;;;;;4997643;28;20511;-70
2023/06/09 06:58:36;;;;;;;16.83;4.47;;;16.20;99.90;;;;;;4980974;28;20349;-71
2023/06/09 07:01:03;;;;;;;11.60;3.92;;;16.20;99.90;;;;;;4986395;28;20049;-70
2023/06/09 07:03:29;;;;;;;9.45;3.83;;;16.30;99.90;;;;;;5004895;28;20057;-70
2023/06/09 07:05:56;;;;;;;12.48;4.65;;;16.40;99.90;;;;;;4999653;28;20072;-71
2023/06/09 07:08:21;;;;;;;;;;;16.40;99.90;;;;;;4984811;28;20086;-71
2023/06/09 07:10:47;;;;;;;11.13;4.50;;;16.50;99.90;;;;;;4986138;28;19956;-71
2023/06/09 07:13:13;;;;;;;7.40;3.25;;;16.60;99.90;;;;;;4986889;28;20765;-71
2023/06/09 07:15:38;;;;;;;13.65;4.13;;;16.60;99.90;;;;;;5000650;28;20046;-71
2023/06/09 07:18:06;;;;;;;11.40;4.38;;;16.70;99.90;;;;;;4974677;28;20045;-71
2023/06/09 07:20:32;;;;;;;8.93;3.90;;;16.70;99.90;;;;;;4988569;28;20427;-71
2023/06/09 07:22:58;;;;;;;12.88;3.70;;;16.80;99.90;;;;;;4984750;28;20053;-71
2023/06/09 07:25:24;;;;;;;;;;;16.90;99.90;;;;;;4983474;28;20141;-71
2023/06/09 07:27:49;;;;;;;8.52;3.97;;;16.90;99.90;;;;;;4988642;28;20356;-71
2023/06/09 07:30:15;;;;;;;9.02;3.92;;;17.00;99.90;;;;;;4985689;28;20554;-71
2023/06/09 07:32:41;;;;;;;12.45;4.55;;;17.10;99.90;;;;;;4981606;28;20135;-71
2023/06/09 07:35:12;;;;;;;12.18;3.78;;;17.20;99.90;;;;;;5004219;28;20038;-71
2023/06/09 07:37:39;;;;;;;12.43;4.30;;;17.20;99.90;;;;;;4988964;28;20057;-71
2023/06/09 07:40:09;;;;;;;13.02;3.70;;;17.30;99.90;;;;;;4985199;28;20132;-71
2023/06/09 07:42:36;;;;;;;9.70;3.97;;;17.40;99.90;;;;;;5004265;28;20052;-71
2023/06/09 07:45:01;;;;;;;;;;;17.40;99.90;;;;;;4992309;28;20053;-71
2023/06/09 07:47:27;;;;;;;8.15;4.00;;;17.50;99.90;;;;;;5005977;28;19925;-71
2023/06/09 07:49:52;;;;;;;9.90;3.95;;;17.60;99.90;;;;;;4989188;28;20061;-71
2023/06/09 07:52:18;;;;;;;11.23;4.22;;;17.60;99.90;;;;;;4990573;28;20038;-71
2023/06/09 07:54:44;;;;;;;11.32;5.30;;;17.70;99.90;;;;;;4981666;28;20226;-70
2023/06/09 07:57:10;;;;;;;9.43;4.20;;;17.80;99.90;;;;;;5003406;28;20161;-71
2023/06/09 07:59:36;;;;;;;;;;;17.90;99.90;;;;;;4985679;28;20034;-71
2023/06/09 08:02:01;;;;;;;9.60;3.80;;;18.00;99.90;;;;;;5002432;28;19921;-71
2023/06/09 08:04:29;;;;;;;10.88;4.22;;;18.00;99.90;;;;;;4985450;28;20037;-71
2023/06/09 08:06:58;;;;;;;16.35;3.95;;;18.10;99.90;;;;;;4980927;28;20289;-71
2023/06/09 08:09:25;;;;;;;14.25;4.35;;;18.20;99.90;;;;;;4988049;28;20060;-71
2023/06/09 08:11:52;;;;;;;10.48;3.63;;;18.30;99.90;;;;;;4984657;28;20050;-71
2023/06/09 08:14:17;;;;;;;;;;;18.40;99.90;;;;;;4994781;28;20042;-71
2023/06/09 08:16:44;;;;;;;8.20;3.60;;;18.50;99.90;;;;;;4999545;28;19917;-71
2023/06/09 08:19:09;;;;;;;;;;;18.60;99.90;;;;;;4989371;28;20057;-71
2023/06/09 08:21:42;;;;;;;10.20;3.40;;;18.70;99.90;;;;;;4996170;28;19917;-71
2023/06/09 08:24:08;;;;;;;11.40;4.00;;;18.80;99.90;;;;;;4988783;28;20042;-70
2023/06/09 08:26:34;;;;;;;;;;;18.90;99.90;;;;;;5010525;28;20030;-71
2023/06/09 08:29:01;;;;;;;11.30;4.30;;;19.00;99.90;;;;;;5002765;28;20397;-71
2023/06/09 08:31:27;;;;;;;13.82;4.50;;;19.10;99.90;;;;;;4984466;28;20566;-71
2023/06/09 08:33:54;;;;;;;11.70;4.47;;;19.20;99.90;;;;;;4995204;28;20038;-71
2023/06/09 08:36:20;;;;;;;9.57;4.38;;;19.30;99.90;;;;;;4982725;28;20065;-71
2023/06/09 08:38:46;;;;;;;;;;;19.40;99.90;;;;;;5000230;28;20049;-71
2023/06/09 08:41:14;;;;;;;8.45;3.55;;;19.40;99.90;;;;;;4984487;28;19917;-71
2023/06/09 08:43:40;;;;;;;9.82;3.75;;;19.50;99.90;;;;;;4986343;28;20483;-71
2023/06/09 08:46:09;;;;;;;11.50;3.97;;;19.60;99.90;;;;;;5001858;28;20050;-71
2023/06/09 08:48:41;;;;;;;9.05;3.50;;;19.70;99.90;;;;;;4982077;28;20061;-71
2023/06/09 08:51:08;;;;;;;10.52;3.90;;;19.80;99.90;;;;;;5001475;28;20049;-71
2023/06/09 08:53:34;;;;;;;11.13;3.78;;;19.90;99.90;;;;;;5004347;28;20452;-71
2023/06/09 08:56:01;;;;;;;;;;;20.00;99.90;;;;;;4990184;28;20061;-71
2023/06/09 08:58:27;;;;;;;9.80;4.53;;;20.10;99.90;;;;;;4983401;28;20350;-71
2023/06/09 09:00:54;;;;;;;10.65;3.70;;;20.30;99.90;;;;;;5003239;28;20073;-71
2023/06/09 09:03:20;;;;;;;9.75;4.07;;;20.30;99.90;;;;;;4982285;28;20038;-71
2023/06/09 09:05:47;;;;;;;11.85;3.72;;;20.50;99.90;;;;;;5004278;28;20122;-72
2023/06/09 09:08:14;;;;;;;11.98;3.67;;;20.60;99.90;;;;;;5000839;28;20054;-71
2023/06/09 09:10:40;;;;;;;12.18;4.55;;;20.70;99.90;;;;;;4968076;28;20042;-71
2023/06/09 09:13:10;;;;;;;11.00;4.18;;;20.90;99.90;;;;;;5003932;28;20038;-71
2023/06/09 09:15:37;;;;;;;10.80;3.88;;;21.00;99.90;;;;;;4987313;28;20038;-71
2023/06/09 09:18:09;;;;;;;12.52;4.32;;;21.10;99.90;;;;;;5002865;28;20046;-71
2023/06/09 09:20:35;;;;;;;9.05;3.38;;;21.20;99.90;;;;;;5002578;28;20041;-71
2023/06/09 09:23:03;;;;;;;16.10;4.10;;;21.30;99.90;;;;;;5000760;28;20053;-71
2023/06/09 09:25:30;;;;;;;7.80;3.88;;;21.40;99.90;;;;;;5001831;28;20191;-71
2023/06/09 09:28:07;;;;;;;11.02;3.60;;;21.50;99.90;;;;;;4988675;28;20464;-71
2023/06/09 09:30:44;;;;;;;7.65;3.33;;;21.70;99.90;;;;;;4989064;28;20396;-71
2023/06/09 09:33:15;;;;;;;10.38;3.08;;;21.80;99.90;;;;;;4987255;28;20038;-71
2023/06/09 09:35:45;;;;;;;13.23;3.65;;;22.00;99.90;;;;;;4991998;28;20119;-71
2023/06/09 09:38:13;;;;;;;9.63;3.92;;;22.00;99.90;;;;;;5004926;28;20073;-71
2023/06/09 09:40:51;;;;;;;8.68;3.25;;;22.20;99.90;;;;;;5004505;28;20497;-71
2023/06/09 09:43:18;;;;;;;7.90;3.30;;;22.30;99.90;;;;;;4990760;28;20045;-71
2023/06/09 09:45:46;;;;;;;6.43;3.80;;;22.50;99.90;;;;;;4989273;28;20575;-71
2023/06/09 09:48:14;;;;;;;8.98;3.63;;;22.60;99.90;;;;;;5009483;28;20594;-71
2023/06/09 09:50:42;;;;;;;8.48;2.95;;;22.60;99.90;;;;;;4990951;28;20045;-71
2023/06/09 09:53:08;;;;;;;7.93;3.45;;;22.70;99.90;;;;;;4992296;28;20045;-71
2023/06/09 09:55:36;;;;;;;8.30;3.33;;;22.90;99.90;;;;;;4989687;28;20480;-71
2023/06/09 09:58:06;;;;;;;6.95;2.70;;;23.00;99.90;;;;;;4985552;28;20046;-71
2023/06/09 10:00:38;;;;;;;6.72;3.28;;;23.10;99.90;;;;;;4992569;28;20352;-71
2023/06/09 10:03:15;;;;;;;8.63;3.38;;;23.20;99.90;;;;;;4995181;28;20133;-71
2023/06/09 10:05:49;;;;;;;7.53;3.17;;;23.30;99.90;;;;;;5001357;28;20037;-71
2023/06/09 10:08:21;;;;;;;7.60;2.85;;;23.40;99.90;;;;;;4992073;28;20057;-71
2023/06/09 10:10:49;;;;;;;10.35;3.25;;;23.60;99.90;;;;;;5004370;28;20046;-71
2023/06/09 10:13:15;;;;;;;7.60;3.22;;;23.70;99.90;;;;;;5003201;28;20034;-71
2023/06/09 10:15:45;;;;;;;10.15;3.30;;;23.80;99.90;;;;;;5007808;28;20060;-71
2023/06/09 10:18:12;;;;;;;7.93;3.08;;;23.90;99.90;;;;;;4996669;28;20081;-71
2023/06/09 10:20:41;;;;;;;8.30;3.40;;;24.00;99.90;;;;;;4989760;28;20399;-71
2023/06/09 10:23:07;;;;;;;9.25;3.85;;;24.10;99.90;;;;;;4988994;28;20046;-78
2023/06/09 10:25:33;;;;;;;11.88;3.70;;;24.10;99.90;;;;;;4990607;28;20500;-71
2023/06/09 10:27:59;;;;;;;8.02;3.47;;;24.20;99.90;;;;;;4985938;28;20042;-71
2023/06/09 10:30:24;;;;;;;;;;;24.30;99.90;;;;;;4991901;28;20042;-71
2023/06/09 10:32:57;;;;;;;8.85;3.15;;;24.40;99.90;;;;;;5006882;28;20373;-71
2023/06/09 10:35:31;;;;;;;6.72;3.00;;;24.50;99.90;;;;;;5000521;28;20053;-71
2023/06/09 10:37:59;;;;;;;4.38;2.60;;;24.60;99.90;;;;;;4984009;28;20060;-71
2023/06/09 10:40:24;;;;;;;7.70;3.10;;;24.80;99.90;;;;;;4990329;28;20042;-71
2023/06/09 10:43:11;;;;;;;9.25;2.97;;;24.90;99.90;;;;;;5003868;28;20053;-71
2023/06/09 10:45:55;;;;;;;8.65;3.22;;;25.00;99.90;;;;;;4983912;28;20049;-71
2023/06/09 10:48:42;;;;;;;9.38;3.28;;;25.10;99.90;;;;;;4999348;28;20042;-71
2023/06/09 10:51:26;;;;;;;6.20;2.95;;;25.20;99.90;;;;;;5001364;28;20093;-71
2023/06/09 10:54:10;;;;;;;9.82;3.20;;;25.30;99.90;;;;;;5004537;28;20041;-71
2023/06/09 10:56:52;;;;;;;7.55;2.80;;;25.40;99.90;;;;;;5005851;28;20503;-71
2023/06/09 10:59:24;;;;;;;8.57;2.70;;;25.50;99.90;;;;;;4990311;28;20081;-71
2023/06/09 11:02:11;;;;;;;9.23;3.20;;;25.60;99.90;;;;;;4999982;28;20528;-71
2023/06/09 11:04:48;;;;;;;6.93;3.20;;;25.70;99.90;;;;;;5006866;28;20695;-71
2023/06/09 11:07:21;;;;;;;6.75;3.50;;;25.80;99.90;;;;;;4984808;28;20046;-71
2023/06/09 11:09:47;;;;;;;10.55;3.38;;;25.90;99.90;;;;;;4997386;28;20045;-71
2023/06/09 11:12:25;;;;;;;7.70;2.85;;;26.00;99.90;;;;;;5007242;28;20107;-71
2023/06/09 11:14:51;;;;;;;5.63;2.67;;;26.10;99.90;;;;;;5009783;28;20440;-71
2023/06/09 11:17:19;;;;;;;7.22;3.00;;;26.20;99.90;;;;;;4987651;28;20046;-71
2023/06/09 11:19:45;;;;;;;8.82;2.83;;;26.30;99.90;;;;;;4993544;28;20041;-71
2023/06/09 11:22:12;;;;;;;9.68;3.13;;;26.30;99.90;;;;;;5004129;28;20041;-71
2023/06/09 11:24:50;;;;;;;6.22;3.10;;;26.40;99.90;;;;;;5006080;28;20497;-71
2023/06/09 11:27:17;;;;;;;6.00;2.83;;;26.50;99.90;;;;;;4988876;28;20204;-71
2023/06/09 11:29:44;;;;;;;9.18;3.00;;;26.50;99.90;;;;;;5000420;28;20041;-71
2023/06/09 11:32:12;;;;;;;7.47;2.70;;;26.60;99.90;;;;;;4988925;28;20033;-71
2023/06/09 11:34:55;;;;;;;5.30;3.15;;;26.70;99.90;;;;;;4989255;28;20096;-71
2023/06/09 11:37:21;;;;;;;6.38;3.20;;;26.80;99.90;;;;;;4985246;28;20042;-71
2023/06/09 11:39:48;;;;;;;5.32;2.58;;;26.90;99.90;;;;;;4988790;28;20058;-71
2023/06/09 11:42:14;;;;;;;5.90;2.88;;;26.90;99.90;;;;;;5010601;28;20391;-71
2023/06/09 11:44:40;;;;;;;5.68;3.42;;;27.00;99.90;;;;;;4988153;28;20030;-71
2023/06/09 11:47:25;;;;;;;9.50;3.60;;;27.10;99.90;;;;;;5003115;28;20041;-71
2023/06/09 11:50:02;;;;;;;6.72;3.42;;;27.20;99.40;;;;;;5004116;28;20037;-71
2023/06/09 11:52:28;;;;;;;4.95;2.83;;;27.30;98.70;;;;;;4990100;28;20403;-71
2023/06/09 11:54:54;;;;;;;9.32;4.03;;;27.30;98.50;;;;;;5004997;28;20042;-71
2023/06/09 11:57:22;;;;;;;7.45;3.22;;;27.40;98.50;;;;;;5004079;28;20141;-71
2023/06/09 11:59:48;;;;;;;8.20;3.63;;;27.50;98.00;;;;;;4992619;28;20049;-71
2023/06/09 12:02:16;;;;;;;10.52;4.47;;;27.60;97.30;;;;;;4991330;28;20052;-71
2023/06/09 12:04:43;;;;;;;6.97;3.47;;;27.70;96.60;;;;;;4989597;28;20049;-71
2023/06/09 12:07:13;;;;;;;8.02;3.47;;;27.70;96.80;;;;;;5005093;28;20488;-71
2023/06/09 12:09:40;;;;;;;9.07;3.28;;;27.80;96.00;;;;;;5002080;28;20046;-71
2023/06/09 12:12:07;;;;;;;6.22;2.83;;;27.90;95.30;;;;;;4988155;28;20295;-71
2023/06/09 12:14:33;;;;;;;6.68;3.80;;;27.90;95.10;;;;;;5007077;28;20048;-71
2023/06/09 12:16:58;;;;;;;5.82;3.35;;;28.00;94.50;;;;;;5005794;28;20415;-71
2023/06/09 12:19:24;;;;;;;5.80;2.90;;;28.10;95.00;;;;;;4984705;28;20046;-71
2023/06/09 12:21:50;;;;;;;7.13;3.40;;;28.20;94.70;;;;;;5005569;28;20038;-71
2023/06/09 12:24:16;;;;;;;8.55;3.50;;;28.20;94.30;;;;;;5009244;28;20080;-71
2023/06/09 12:26:47;;;;;;;7.03;3.17;;;28.30;93.40;;;;;;5046046;23;20049;-68
2023/06/09 12:29:13;;;;;;;6.15;3.35;;;28.30;93.30;;;;;;4978420;28;20125;-69
2023/06/09 12:31:52;;;;;;;5.88;3.60;;;28.40;93.20;;;;;;4993508;28;20050;-70
2023/06/09 12:34:21;;;;;;;7.88;3.10;;;28.50;91.90;;;;;;4988964;28;20046;-70
2023/06/09 12:36:47;;;;;;;8.43;3.88;;;28.50;91.80;;;;;;4978006;28;20039;-70
2023/06/09 12:39:32;;;;;;;6.80;3.20;;;28.60;91.70;;;;;;4965531;28;20046;-70
2023/06/09 12:42:09;;;;;;;5.68;3.05;;;28.60;91.30;;;;;;4960469;28;20061;-70
2023/06/09 12:44:35;;;;;;;8.23;3.22;;;28.70;90.40;;;;;;4981497;28;20520;-70
2023/06/09 12:47:01;;;;;;;6.63;3.25;;;28.70;90.70;;;;;;4959787;28;20038;-70
2023/06/09 12:49:29;;;;;;;6.55;3.20;;;28.80;90.80;;;;;;4970603;28;20089;-70
2023/06/09 12:51:55;;;;;;;6.10;2.75;;;28.90;90.70;;;;;;4980820;28;20605;-71